Terminal Aerodrome Forecast
Issued by NWS

Current Version | Previous Version | Text Only | Print | Product List | Glossary On
Versions: 1 2 3 4 5 6 7 8 9 10 11 12
000
FTUS46 KSTO 290520
TAFRDD
TAF
KRDD 290520Z 2906/3006 34006KT P6SM SKC
     FM292000 VRB05KT P6SM SKC
     FM300000 11007KT P6SM SKC=

USA.gov is the U.S. government's official web portal to all federal, state and local government web resources and services.